Portada
METAR-TAF:

METAR-TAF

Aeropuertos :

Tiree, Escocia

latitud: 56-30N, longitud: 006-53W, altitud: 12 m

Observación

El informe se hizo hace 3 horas y 49 minutos, a las 16:50 UTC
Viento 5 kt del norte-noreste
Temperatura 15°C
Humedad 82%
Presión 1008 hPa
Visibilidad 10 km o más
Cielo nuboso a una altura de 4800 ft

METAR: EGPU 151650Z 02005KT 9999 BKN048 15/12 Q1008

Hora: 21:39 (20:39 UTC)

Pronóstico

El informe se hizo hace 6 horas y 39 minutos, a las 14:00 UTC
Pronóstico válido del 15 a las 15 UTC al 15 a las 19 UTC
Viento 10 kt del norte
Visibilidad 10 km o más
Escasas nubes a una altura de 3000 ft

TAF: EGPU 151400Z 1515/1519 36010KT 9999 FEW030

Observaciones y pronósticos meteorológicos de más de 4000 aeropuertos (mensajes METAR y TAF).

Los puntos amarillos y rojos representan las estaciones disponibles.

Ponga el ratón en el punto deseado para ver el nombre de la estación.

Haga clic para ver las observaciones y los pronósticos meteorológicos.

Para cambiar el mapa : haga clic en los botones verdes con una cruz de color negro para hacer un zoom, en el botón verde con un guión para alejar o en las flechas verdes para mapas adyacentes.


METAR-TAF: